sensor_id;sensor_type;location;lat;lon;timestamp;temperature;humidity
74540;SHT31;66042;51.090;-115.340;2023-03-04T00:00:27;-1.67;52.53
74540;SHT31;66042;51.090;-115.340;2023-03-04T00:02:54;-1.79;52.69
74540;SHT31;66042;51.090;-115.340;2023-03-04T00:05:22;-1.86;52.65
74540;SHT31;66042;51.090;-115.340;2023-03-04T00:07:49;-1.86;52.53
74540;SHT31;66042;51.090;-115.340;2023-03-04T00:10:16;-1.84;52.10
74540;SHT31;66042;51.090;-115.340;2023-03-04T00:12:43;-1.78;51.55
74540;SHT31;66042;51.090;-115.340;2023-03-04T00:15:10;-1.71;51.42
74540;SHT31;66042;51.090;-115.340;2023-03-04T00:17:38;-1.69;51.44
74540;SHT31;66042;51.090;-115.340;2023-03-04T00:20:05;-1.69;51.22
74540;SHT31;66042;51.090;-115.340;2023-03-04T00:22:33;-1.72;51.72
74540;SHT31;66042;51.090;-115.340;2023-03-04T00:25:00;-1.74;51.97
74540;SHT31;66042;51.090;-115.340;2023-03-04T00:27:27;-1.73;51.73
74540;SHT31;66042;51.090;-115.340;2023-03-04T00:29:54;-1.68;51.43
74540;SHT31;66042;51.090;-115.340;2023-03-04T00:32:22;-1.64;50.90
74540;SHT31;66042;51.090;-115.340;2023-03-04T00:34:49;-1.63;50.70
74540;SHT31;66042;51.090;-115.340;2023-03-04T00:37:16;-1.65;50.88
74540;SHT31;66042;51.090;-115.340;2023-03-04T00:39:43;-1.69;51.10
74540;SHT31;66042;51.090;-115.340;2023-03-04T00:42:10;-1.75;51.53
74540;SHT31;66042;51.090;-115.340;2023-03-04T00:44:37;-1.88;51.58
74540;SHT31;66042;51.090;-115.340;2023-03-04T00:47:04;-1.92;51.27
74540;SHT31;66042;51.090;-115.340;2023-03-04T00:49:31;-1.93;51.37
74540;SHT31;66042;51.090;-115.340;2023-03-04T00:51:59;-1.97;51.43
74540;SHT31;66042;51.090;-115.340;2023-03-04T00:54:26;-2.05;51.75
74540;SHT31;66042;51.090;-115.340;2023-03-04T00:56:53;-2.13;52.19
74540;SHT31;66042;51.090;-115.340;2023-03-04T00:59:20;-2.26;51.81
74540;SHT31;66042;51.090;-115.340;2023-03-04T01:01:47;-2.35;51.68
74540;SHT31;66042;51.090;-115.340;2023-03-04T01:04:14;-2.39;51.40
74540;SHT31;66042;51.090;-115.340;2023-03-04T01:06:41;-2.41;51.41
74540;SHT31;66042;51.090;-115.340;2023-03-04T01:09:08;-2.49;51.50
74540;SHT31;66042;51.090;-115.340;2023-03-04T01:11:35;-2.56;50.84
74540;SHT31;66042;51.090;-115.340;2023-03-04T01:14:02;-2.73;50.33
74540;SHT31;66042;51.090;-115.340;2023-03-04T01:16:29;-2.85;50.85
74540;SHT31;66042;51.090;-115.340;2023-03-04T01:18:56;-2.90;50.83
74540;SHT31;66042;51.090;-115.340;2023-03-04T01:21:24;-2.95;51.14
74540;SHT31;66042;51.090;-115.340;2023-03-04T01:23:51;-3.00;51.15
74540;SHT31;66042;51.090;-115.340;2023-03-04T01:26:18;-3.04;50.96
74540;SHT31;66042;51.090;-115.340;2023-03-04T01:28:45;-3.10;50.79
74540;SHT31;66042;51.090;-115.340;2023-03-04T01:31:12;-3.22;51.49
74540;SHT31;66042;51.090;-115.340;2023-03-04T01:33:39;-3.36;51.74
74540;SHT31;66042;51.090;-115.340;2023-03-04T01:36:06;-3.44;51.62
74540;SHT31;66042;51.090;-115.340;2023-03-04T01:38:33;-3.54;51.41
74540;SHT31;66042;51.090;-115.340;2023-03-04T01:41:00;-3.65;51.86
74540;SHT31;66042;51.090;-115.340;2023-03-04T01:43:29;-3.75;51.99
74540;SHT31;66042;51.090;-115.340;2023-03-04T01:45:56;-3.88;52.42
74540;SHT31;66042;51.090;-115.340;2023-03-04T01:48:25;-4.01;52.73
74540;SHT31;66042;51.090;-115.340;2023-03-04T01:51:00;-4.08;52.72
74540;SHT31;66042;51.090;-115.340;2023-03-04T01:53:32;-4.14;52.75
74540;SHT31;66042;51.090;-115.340;2023-03-04T01:56:18;-4.25;52.72
74540;SHT31;66042;51.090;-115.340;2023-03-04T01:59:14;-4.38;53.04
74540;SHT31;66042;51.090;-115.340;2023-03-04T02:01:45;-4.47;52.92
74540;SHT31;66042;51.090;-115.340;2023-03-04T02:04:16;-4.54;53.07
74540;SHT31;66042;51.090;-115.340;2023-03-04T02:06:46;-4.57;52.98
74540;SHT31;66042;51.090;-115.340;2023-03-04T02:09:15;-4.54;52.93
74540;SHT31;66042;51.090;-115.340;2023-03-04T02:11:44;-4.59;52.62
74540;SHT31;66042;51.090;-115.340;2023-03-04T02:14:14;-4.61;52.90
74540;SHT31;66042;51.090;-115.340;2023-03-04T02:16:43;-4.63;53.31
74540;SHT31;66042;51.090;-115.340;2023-03-04T02:19:18;-4.60;53.23
74540;SHT31;66042;51.090;-115.340;2023-03-04T02:22:07;-4.63;53.52
74540;SHT31;66042;51.090;-115.340;2023-03-04T02:24:40;-4.62;53.32
74540;SHT31;66042;51.090;-115.340;2023-03-04T02:27:17;-4.61;53.42
74540;SHT31;66042;51.090;-115.340;2023-03-04T02:29:45;-4.54;53.40
74540;SHT31;66042;51.090;-115.340;2023-03-04T02:32:13;-4.44;53.03
74540;SHT31;66042;51.090;-115.340;2023-03-04T02:34:46;-4.36;52.38
74540;SHT31;66042;51.090;-115.340;2023-03-04T02:37:15;-4.32;52.18
74540;SHT31;66042;51.090;-115.340;2023-03-04T02:39:45;-4.28;52.33
74540;SHT31;66042;51.090;-115.340;2023-03-04T02:42:14;-4.27;52.18
74540;SHT31;66042;51.090;-115.340;2023-03-04T02:44:43;-4.22;51.85
74540;SHT31;66042;51.090;-115.340;2023-03-04T02:47:15;-4.30;51.17
74540;SHT31;66042;51.090;-115.340;2023-03-04T02:49:45;-4.27;50.95
74540;SHT31;66042;51.090;-115.340;2023-03-04T02:52:13;-4.30;51.06
74540;SHT31;66042;51.090;-115.340;2023-03-04T02:54:45;-4.21;51.07
74540;SHT31;66042;51.090;-115.340;2023-03-04T02:57:14;-4.12;50.82
74540;SHT31;66042;51.090;-115.340;2023-03-04T02:59:41;-4.03;50.49
74540;SHT31;66042;51.090;-115.340;2023-03-04T03:02:08;-4.00;50.68
74540;SHT31;66042;51.090;-115.340;2023-03-04T03:04:36;-4.10;50.84
74540;SHT31;66042;51.090;-115.340;2023-03-04T03:07:05;-4.12;50.83
74540;SHT31;66042;51.090;-115.340;2023-03-04T03:09:33;-4.15;50.74
74540;SHT31;66042;51.090;-115.340;2023-03-04T03:12:00;-4.14;50.28
74540;SHT31;66042;51.090;-115.340;2023-03-04T03:14:27;-4.14;50.33
74540;SHT31;66042;51.090;-115.340;2023-03-04T03:16:55;-4.34;51.04
74540;SHT31;66042;51.090;-115.340;2023-03-04T03:19:22;-4.39;51.03
74540;SHT31;66042;51.090;-115.340;2023-03-04T03:21:49;-4.38;50.77
74540;SHT31;66042;51.090;-115.340;2023-03-04T03:24:16;-4.46;51.14
74540;SHT31;66042;51.090;-115.340;2023-03-04T03:26:44;-4.65;51.95
74540;SHT31;66042;51.090;-115.340;2023-03-04T03:29:11;-4.75;52.27
74540;SHT31;66042;51.090;-115.340;2023-03-04T03:31:38;-4.79;52.39
74540;SHT31;66042;51.090;-115.340;2023-03-04T03:34:05;-4.82;52.14
74540;SHT31;66042;51.090;-115.340;2023-03-04T03:36:33;-4.90;52.36
74540;SHT31;66042;51.090;-115.340;2023-03-04T03:39:00;-4.95;51.93
74540;SHT31;66042;51.090;-115.340;2023-03-04T03:41:26;-5.12;51.93
74540;SHT31;66042;51.090;-115.340;2023-03-04T03:43:53;-5.28;52.50
74540;SHT31;66042;51.090;-115.340;2023-03-04T03:46:23;-5.34;52.56
74540;SHT31;66042;51.090;-115.340;2023-03-04T03:48:50;-5.39;52.86
74540;SHT31;66042;51.090;-115.340;2023-03-04T03:51:17;-5.44;52.87
74540;SHT31;66042;51.090;-115.340;2023-03-04T03:53:44;-5.47;52.63
74540;SHT31;66042;51.090;-115.340;2023-03-04T03:56:11;-5.46;52.13
74540;SHT31;66042;51.090;-115.340;2023-03-04T03:58:38;-5.49;52.26
74540;SHT31;66042;51.090;-115.340;2023-03-04T04:01:05;-5.57;52.44
74540;SHT31;66042;51.090;-115.340;2023-03-04T04:03:33;-5.59;52.49
74540;SHT31;66042;51.090;-115.340;2023-03-04T04:06:00;-5.53;52.21
74540;SHT31;66042;51.090;-115.340;2023-03-04T04:08:27;-5.52;52.27
74540;SHT31;66042;51.090;-115.340;2023-03-04T04:10:54;-5.54;52.45
74540;SHT31;66042;51.090;-115.340;2023-03-04T04:13:21;-5.59;53.05
74540;SHT31;66042;51.090;-115.340;2023-03-04T04:15:49;-5.58;53.77
74540;SHT31;66042;51.090;-115.340;2023-03-04T04:18:17;-5.58;54.08
74540;SHT31;66042;51.090;-115.340;2023-03-04T04:20:45;-5.67;54.05
74540;SHT31;66042;51.090;-115.340;2023-03-04T04:23:12;-5.74;54.49
74540;SHT31;66042;51.090;-115.340;2023-03-04T04:25:39;-5.70;54.58
74540;SHT31;66042;51.090;-115.340;2023-03-04T04:28:06;-5.73;54.45
74540;SHT31;66042;51.090;-115.340;2023-03-04T04:30:33;-5.82;54.65
74540;SHT31;66042;51.090;-115.340;2023-03-04T04:33:01;-5.85;54.61
74540;SHT31;66042;51.090;-115.340;2023-03-04T04:35:30;-5.74;53.90
74540;SHT31;66042;51.090;-115.340;2023-03-04T04:38:03;-5.77;53.37
74540;SHT31;66042;51.090;-115.340;2023-03-04T04:40:33;-5.91;53.54
74540;SHT31;66042;51.090;-115.340;2023-03-04T04:43:00;-5.93;53.90
74540;SHT31;66042;51.090;-115.340;2023-03-04T04:45:27;-5.79;53.94
74540;SHT31;66042;51.090;-115.340;2023-03-04T04:47:54;-5.81;53.79
74540;SHT31;66042;51.090;-115.340;2023-03-04T04:50:25;-5.85;53.83
74540;SHT31;66042;51.090;-115.340;2023-03-04T04:52:52;-5.86;53.59
74540;SHT31;66042;51.090;-115.340;2023-03-04T04:55:19;-5.96;53.63
74540;SHT31;66042;51.090;-115.340;2023-03-04T04:57:46;-6.13;53.97
74540;SHT31;66042;51.090;-115.340;2023-03-04T05:00:13;-6.19;54.10
74540;SHT31;66042;51.090;-115.340;2023-03-04T05:02:42;-6.23;54.03
74540;SHT31;66042;51.090;-115.340;2023-03-04T05:05:09;-6.25;54.00
74540;SHT31;66042;51.090;-115.340;2023-03-04T05:07:36;-6.31;54.06
74540;SHT31;66042;51.090;-115.340;2023-03-04T05:10:03;-6.45;54.37
74540;SHT31;66042;51.090;-115.340;2023-03-04T05:12:31;-6.48;54.71
74540;SHT31;66042;51.090;-115.340;2023-03-04T05:14:58;-6.51;54.71
74540;SHT31;66042;51.090;-115.340;2023-03-04T05:17:25;-6.64;54.90
74540;SHT31;66042;51.090;-115.340;2023-03-04T05:19:52;-6.80;55.02
74540;SHT31;66042;51.090;-115.340;2023-03-04T05:22:19;-6.83;54.86
74540;SHT31;66042;51.090;-115.340;2023-03-04T05:24:46;-6.85;55.00
74540;SHT31;66042;51.090;-115.340;2023-03-04T05:27:15;-6.84;55.14
74540;SHT31;66042;51.090;-115.340;2023-03-04T05:29:42;-6.77;54.84
74540;SHT31;66042;51.090;-115.340;2023-03-04T05:32:11;-6.76;54.86
74540;SHT31;66042;51.090;-115.340;2023-03-04T05:34:38;-6.74;54.74
74540;SHT31;66042;51.090;-115.340;2023-03-04T05:37:05;-6.84;54.60
74540;SHT31;66042;51.090;-115.340;2023-03-04T05:39:32;-6.95;54.86
74540;SHT31;66042;51.090;-115.340;2023-03-04T05:42:00;-7.03;55.02
74540;SHT31;66042;51.090;-115.340;2023-03-04T05:44:27;-7.06;55.20
74540;SHT31;66042;51.090;-115.340;2023-03-04T05:46:54;-7.11;55.28
74540;SHT31;66042;51.090;-115.340;2023-03-04T05:49:21;-7.26;55.66
74540;SHT31;66042;51.090;-115.340;2023-03-04T05:51:49;-7.24;55.72
74540;SHT31;66042;51.090;-115.340;2023-03-04T05:54:17;-7.15;55.46
74540;SHT31;66042;51.090;-115.340;2023-03-04T05:56:46;-7.19;55.56
74540;SHT31;66042;51.090;-115.340;2023-03-04T05:59:13;-7.07;55.42
74540;SHT31;66042;51.090;-115.340;2023-03-04T06:01:45;-7.04;55.23
74540;SHT31;66042;51.090;-115.340;2023-03-04T06:04:13;-7.20;55.46
74540;SHT31;66042;51.090;-115.340;2023-03-04T06:06:40;-7.32;55.83
74540;SHT31;66042;51.090;-115.340;2023-03-04T06:09:07;-7.33;56.00
74540;SHT31;66042;51.090;-115.340;2023-03-04T06:11:34;-7.27;55.90
74540;SHT31;66042;51.090;-115.340;2023-03-04T06:14:01;-7.17;55.78
74540;SHT31;66042;51.090;-115.340;2023-03-04T06:16:28;-7.16;55.52
74540;SHT31;66042;51.090;-115.340;2023-03-04T06:18:55;-7.36;55.71
74540;SHT31;66042;51.090;-115.340;2023-03-04T06:21:21;-7.53;56.30
74540;SHT31;66042;51.090;-115.340;2023-03-04T06:23:49;-7.52;56.29
74540;SHT31;66042;51.090;-115.340;2023-03-04T06:26:16;-7.42;55.90
74540;SHT31;66042;51.090;-115.340;2023-03-04T06:28:43;-7.48;56.07
74540;SHT31;66042;51.090;-115.340;2023-03-04T06:31:10;-7.63;56.39
74540;SHT31;66042;51.090;-115.340;2023-03-04T06:33:37;-7.60;56.31
74540;SHT31;66042;51.090;-115.340;2023-03-04T06:36:04;-7.61;56.16
74540;SHT31;66042;51.090;-115.340;2023-03-04T06:38:32;-7.67;56.24
74540;SHT31;66042;51.090;-115.340;2023-03-04T06:41:09;-7.65;56.31
74540;SHT31;66042;51.090;-115.340;2023-03-04T06:43:39;-7.68;56.42
74540;SHT31;66042;51.090;-115.340;2023-03-04T06:46:06;-7.80;56.69
74540;SHT31;66042;51.090;-115.340;2023-03-04T06:48:34;-7.86;56.99
74540;SHT31;66042;51.090;-115.340;2023-03-04T06:51:07;-7.96;57.21
74540;SHT31;66042;51.090;-115.340;2023-03-04T06:53:36;-7.98;57.02
74540;SHT31;66042;51.090;-115.340;2023-03-04T06:56:04;-7.86;56.98
74540;SHT31;66042;51.090;-115.340;2023-03-04T06:58:33;-7.80;56.86
74540;SHT31;66042;51.090;-115.340;2023-03-04T07:03:49;-7.71;56.67
74540;SHT31;66042;51.090;-115.340;2023-03-04T07:06:20;-7.78;56.56
74540;SHT31;66042;51.090;-115.340;2023-03-04T07:08:50;-7.97;56.92
74540;SHT31;66042;51.090;-115.340;2023-03-04T07:11:19;-8.15;57.41
74540;SHT31;66042;51.090;-115.340;2023-03-04T07:13:46;-8.28;57.91
74540;SHT31;66042;51.090;-115.340;2023-03-04T07:16:15;-8.29;58.02
74540;SHT31;66042;51.090;-115.340;2023-03-04T07:18:45;-8.15;57.90
74540;SHT31;66042;51.090;-115.340;2023-03-04T07:21:13;-8.00;57.92
74540;SHT31;66042;51.090;-115.340;2023-03-04T07:23:42;-8.00;57.61
74540;SHT31;66042;51.090;-115.340;2023-03-04T07:26:09;-8.17;57.93
74540;SHT31;66042;51.090;-115.340;2023-03-04T07:28:37;-8.28;58.50
74540;SHT31;66042;51.090;-115.340;2023-03-04T07:31:08;-8.36;58.97
74540;SHT31;66042;51.090;-115.340;2023-03-04T07:33:38;-8.26;58.64
74540;SHT31;66042;51.090;-115.340;2023-03-04T07:36:05;-8.15;58.39
74540;SHT31;66042;51.090;-115.340;2023-03-04T07:38:33;-8.12;58.01
74540;SHT31;66042;51.090;-115.340;2023-03-04T07:41:00;-8.05;57.82
74540;SHT31;66042;51.090;-115.340;2023-03-04T07:43:27;-8.01;57.71
74540;SHT31;66042;51.090;-115.340;2023-03-04T07:45:58;-7.99;57.77
74540;SHT31;66042;51.090;-115.340;2023-03-04T07:48:26;-7.94;57.67
74540;SHT31;66042;51.090;-115.340;2023-03-04T07:51:13;-7.91;57.46
74540;SHT31;66042;51.090;-115.340;2023-03-04T07:53:44;-7.89;57.34
74540;SHT31;66042;51.090;-115.340;2023-03-04T07:56:16;-7.84;57.26
74540;SHT31;66042;51.090;-115.340;2023-03-04T07:58:46;-7.93;57.31
74540;SHT31;66042;51.090;-115.340;2023-03-04T08:01:15;-8.12;57.77
74540;SHT31;66042;51.090;-115.340;2023-03-04T08:03:48;-8.24;58.04
74540;SHT31;66042;51.090;-115.340;2023-03-04T08:06:16;-8.27;58.17
74540;SHT31;66042;51.090;-115.340;2023-03-04T08:08:45;-8.43;58.50
74540;SHT31;66042;51.090;-115.340;2023-03-04T08:11:15;-8.50;58.49
74540;SHT31;66042;51.090;-115.340;2023-03-04T08:13:45;-8.46;58.34
74540;SHT31;66042;51.090;-115.340;2023-03-04T08:16:14;-8.51;58.39
74540;SHT31;66042;51.090;-115.340;2023-03-04T08:18:46;-8.47;58.43
74540;SHT31;66042;51.090;-115.340;2023-03-04T08:21:16;-8.48;58.23
74540;SHT31;66042;51.090;-115.340;2023-03-04T08:23:46;-8.65;58.51
74540;SHT31;66042;51.090;-115.340;2023-03-04T08:26:16;-8.85;59.17
74540;SHT31;66042;51.090;-115.340;2023-03-04T08:28:51;-8.85;59.02
74540;SHT31;66042;51.090;-115.340;2023-03-04T08:31:20;-8.80;58.53
74540;SHT31;66042;51.090;-115.340;2023-03-04T08:33:48;-8.95;58.49
74540;SHT31;66042;51.090;-115.340;2023-03-04T08:36:17;-9.12;58.88
74540;SHT31;66042;51.090;-115.340;2023-03-04T08:38:44;-9.15;59.22
74540;SHT31;66042;51.090;-115.340;2023-03-04T08:41:11;-9.11;59.34
74540;SHT31;66042;51.090;-115.340;2023-03-04T08:43:39;-9.18;59.38
74540;SHT31;66042;51.090;-115.340;2023-03-04T08:46:07;-9.11;59.33
74540;SHT31;66042;51.090;-115.340;2023-03-04T08:48:35;-9.25;59.68
74540;SHT31;66042;51.090;-115.340;2023-03-04T08:51:09;-9.37;59.92
74540;SHT31;66042;51.090;-115.340;2023-03-04T08:53:39;-9.27;59.47
74540;SHT31;66042;51.090;-115.340;2023-03-04T08:56:08;-9.19;58.97
74540;SHT31;66042;51.090;-115.340;2023-03-04T08:58:35;-9.34;59.30
74540;SHT31;66042;51.090;-115.340;2023-03-04T09:01:03;-9.45;59.72
74540;SHT31;66042;51.090;-115.340;2023-03-04T09:03:34;-9.39;59.41
74540;SHT31;66042;51.090;-115.340;2023-03-04T09:06:02;-9.38;59.15
74540;SHT31;66042;51.090;-115.340;2023-03-04T09:08:30;-9.41;59.28
74540;SHT31;66042;51.090;-115.340;2023-03-04T09:10:58;-9.47;59.63
74540;SHT31;66042;51.090;-115.340;2023-03-04T09:13:27;-9.49;60.08
74540;SHT31;66042;51.090;-115.340;2023-03-04T09:15:56;-9.54;60.30
74540;SHT31;66042;51.090;-115.340;2023-03-04T09:18:23;-9.70;60.54
74540;SHT31;66042;51.090;-115.340;2023-03-04T09:20:51;-9.73;60.50
74540;SHT31;66042;51.090;-115.340;2023-03-04T09:23:19;-9.77;60.30
74540;SHT31;66042;51.090;-115.340;2023-03-04T09:25:46;-9.87;60.35
74540;SHT31;66042;51.090;-115.340;2023-03-04T09:28:14;-9.87;60.40
74540;SHT31;66042;51.090;-115.340;2023-03-04T09:30:42;-9.86;60.34
74540;SHT31;66042;51.090;-115.340;2023-03-04T09:33:10;-9.97;60.53
74540;SHT31;66042;51.090;-115.340;2023-03-04T09:35:38;-9.97;60.66
74540;SHT31;66042;51.090;-115.340;2023-03-04T09:38:05;-9.96;60.60
74540;SHT31;66042;51.090;-115.340;2023-03-04T09:40:42;-10.06;60.72
74540;SHT31;66042;51.090;-115.340;2023-03-04T09:43:23;-10.13;61.05
74540;SHT31;66042;51.090;-115.340;2023-03-04T09:45:56;-10.23;61.20
74540;SHT31;66042;51.090;-115.340;2023-03-04T09:48:39;-10.16;61.16
74540;SHT31;66042;51.090;-115.340;2023-03-04T09:51:19;-10.16;61.29
74540;SHT31;66042;51.090;-115.340;2023-03-04T09:54:10;-10.07;61.40
74540;SHT31;66042;51.090;-115.340;2023-03-04T09:56:38;-9.97;61.10
74540;SHT31;66042;51.090;-115.340;2023-03-04T10:02:00;-9.78;60.85
74540;SHT31;66042;51.090;-115.340;2023-03-04T10:04:49;-9.71;60.35
74540;SHT31;66042;51.090;-115.340;2023-03-04T10:07:25;-9.84;60.12
74540;SHT31;66042;51.090;-115.340;2023-03-04T10:10:21;-9.94;60.55
74540;SHT31;66042;51.090;-115.340;2023-03-04T10:13:00;-9.92;60.69
74540;SHT31;66042;51.090;-115.340;2023-03-04T10:21:03;-10.32;62.05
74540;SHT31;66042;51.090;-115.340;2023-03-04T10:23:47;-10.17;61.97
74540;SHT31;66042;51.090;-115.340;2023-03-04T10:26:16;-10.19;61.61
74540;SHT31;66042;51.090;-115.340;2023-03-04T10:28:47;-10.34;61.68
74540;SHT31;66042;51.090;-115.340;2023-03-04T10:31:19;-10.38;62.03
74540;SHT31;66042;51.090;-115.340;2023-03-04T10:34:04;-10.45;62.21
74540;SHT31;66042;51.090;-115.340;2023-03-04T10:39:31;-10.32;62.26
74540;SHT31;66042;51.090;-115.340;2023-03-04T10:42:04;-10.39;62.00
74540;SHT31;66042;51.090;-115.340;2023-03-04T10:44:51;-10.54;62.36
74540;SHT31;66042;51.090;-115.340;2023-03-04T10:47:25;-10.61;62.68
74540;SHT31;66042;51.090;-115.340;2023-03-04T10:49:58;-10.54;62.64
74540;SHT31;66042;51.090;-115.340;2023-03-04T10:52:40;-10.53;62.61
74540;SHT31;66042;51.090;-115.340;2023-03-04T10:55:19;-10.57;62.61
74540;SHT31;66042;51.090;-115.340;2023-03-04T10:58:00;-10.60;62.68
74540;SHT31;66042;51.090;-115.340;2023-03-04T11:00:33;-10.63;62.83
74540;SHT31;66042;51.090;-115.340;2023-03-04T11:05:48;-10.55;62.80
74540;SHT31;66042;51.090;-115.340;2023-03-04T11:08:21;-10.51;62.56
74540;SHT31;66042;51.090;-115.340;2023-03-04T11:10:48;-10.63;62.62
74540;SHT31;66042;51.090;-115.340;2023-03-04T11:13:18;-10.66;62.73
74540;SHT31;66042;51.090;-115.340;2023-03-04T11:15:58;-10.68;62.80
74540;SHT31;66042;51.090;-115.340;2023-03-04T11:21:19;-10.68;62.89
74540;SHT31;66042;51.090;-115.340;2023-03-04T11:26:35;-10.87;63.09
74540;SHT31;66042;51.090;-115.340;2023-03-04T11:29:39;-10.84;62.96
74540;SHT31;66042;51.090;-115.340;2023-03-04T11:32:23;-10.98;62.61
74540;SHT31;66042;51.090;-115.340;2023-03-04T11:35:15;-11.14;63.12
74540;SHT31;66042;51.090;-115.340;2023-03-04T11:40:58;-11.28;63.72
74540;SHT31;66042;51.090;-115.340;2023-03-04T11:43:37;-11.17;63.46
74540;SHT31;66042;51.090;-115.340;2023-03-04T12:00:22;-11.39;63.70
74540;SHT31;66042;51.090;-115.340;2023-03-04T12:06:24;-11.30;63.70
74540;SHT31;66042;51.090;-115.340;2023-03-04T12:09:46;-11.26;63.46
74540;SHT31;66042;51.090;-115.340;2023-03-04T12:18:50;-11.22;63.28
74540;SHT31;66042;51.090;-115.340;2023-03-04T12:27:37;-11.47;63.20
74540;SHT31;66042;51.090;-115.340;2023-03-04T12:33:46;-11.44;63.22
74540;SHT31;66042;51.090;-115.340;2023-03-04T12:36:34;-11.42;63.19
74540;SHT31;66042;51.090;-115.340;2023-03-04T12:39:32;-11.35;63.12
74540;SHT31;66042;51.090;-115.340;2023-03-04T12:42:36;-11.36;63.00
74540;SHT31;66042;51.090;-115.340;2023-03-04T12:45:50;-11.42;62.97
74540;SHT31;66042;51.090;-115.340;2023-03-04T12:51:50;-11.46;63.00
74540;SHT31;66042;51.090;-115.340;2023-03-04T12:54:43;-11.46;62.93
74540;SHT31;66042;51.090;-115.340;2023-03-04T12:57:23;-11.44;62.95
74540;SHT31;66042;51.090;-115.340;2023-03-04T13:14:23;-11.39;62.94
74540;SHT31;66042;51.090;-115.340;2023-03-04T13:16:54;-11.46;62.81
74540;SHT31;66042;51.090;-115.340;2023-03-04T13:19:51;-11.51;62.70
74540;SHT31;66042;51.090;-115.340;2023-03-04T13:22:46;-11.54;64.07
74540;SHT31;66042;51.090;-115.340;2023-03-04T13:46:28;-11.54;64.71
74540;SHT31;66042;51.090;-115.340;2023-03-04T13:49:13;-11.46;64.70
74540;SHT31;66042;51.090;-115.340;2023-03-04T13:51:50;-11.42;64.37
74540;SHT31;66042;51.090;-115.340;2023-03-04T13:59:47;-11.37;63.67
74540;SHT31;66042;51.090;-115.340;2023-03-04T14:02:21;-11.35;63.44
74540;SHT31;66042;51.090;-115.340;2023-03-04T14:07:28;-11.44;63.20
74540;SHT31;66042;51.090;-115.340;2023-03-04T14:10:01;-11.51;63.27
74540;SHT31;66042;51.090;-115.340;2023-03-04T14:12:46;-11.61;63.42
74540;SHT31;66042;51.090;-115.340;2023-03-04T14:15:22;-11.74;63.77
74540;SHT31;66042;51.090;-115.340;2023-03-04T14:17:53;-11.86;64.01
74540;SHT31;66042;51.090;-115.340;2023-03-04T14:20:35;-11.84;64.14
74540;SHT31;66042;51.090;-115.340;2023-03-04T14:23:40;-11.84;64.15
74540;SHT31;66042;51.090;-115.340;2023-03-04T14:26:13;-11.91;64.39
74540;SHT31;66042;51.090;-115.340;2023-03-04T14:28:44;-11.89;64.58
74540;SHT31;66042;51.090;-115.340;2023-03-04T14:31:18;-11.79;64.22
74540;SHT31;66042;51.090;-115.340;2023-03-04T14:33:49;-11.75;63.80
74540;SHT31;66042;51.090;-115.340;2023-03-04T14:36:31;-11.72;63.43
74540;SHT31;66042;51.090;-115.340;2023-03-04T14:39:03;-11.69;63.29
74540;SHT31;66042;51.090;-115.340;2023-03-04T14:41:32;-11.69;63.16
74540;SHT31;66042;51.090;-115.340;2023-03-04T14:44:06;-11.74;63.18
74540;SHT31;66042;51.090;-115.340;2023-03-04T14:46:46;-11.70;63.49
74540;SHT31;66042;51.090;-115.340;2023-03-04T14:49:21;-11.61;63.49
74540;SHT31;66042;51.090;-115.340;2023-03-04T14:51:50;-11.57;63.46
74540;SHT31;66042;51.090;-115.340;2023-03-04T14:57:18;-11.57;63.36
74540;SHT31;66042;51.090;-115.340;2023-03-04T14:59:50;-11.49;63.36
74540;SHT31;66042;51.090;-115.340;2023-03-04T15:02:28;-11.48;63.10
74540;SHT31;66042;51.090;-115.340;2023-03-04T15:05:08;-11.48;63.14
74540;SHT31;66042;51.090;-115.340;2023-03-04T15:08:04;-11.51;62.95
74540;SHT31;66042;51.090;-115.340;2023-03-04T15:10:57;-11.48;62.94
74540;SHT31;66042;51.090;-115.340;2023-03-04T15:16:16;-11.44;62.44
74540;SHT31;66042;51.090;-115.340;2023-03-04T15:21:39;-11.68;63.38
74540;SHT31;66042;51.090;-115.340;2023-03-04T15:24:08;-11.58;63.60
74540;SHT31;66042;51.090;-115.340;2023-03-04T15:26:38;-11.49;63.21
74540;SHT31;66042;51.090;-115.340;2023-03-04T15:29:14;-11.40;62.86
74540;SHT31;66042;51.090;-115.340;2023-03-04T15:31:44;-11.33;62.62
74540;SHT31;66042;51.090;-115.340;2023-03-04T15:34:15;-11.27;62.56
74540;SHT31;66042;51.090;-115.340;2023-03-04T15:36:45;-11.27;62.64
74540;SHT31;66042;51.090;-115.340;2023-03-04T15:39:16;-11.32;62.72
74540;SHT31;66042;51.090;-115.340;2023-03-04T15:41:47;-11.28;62.83
74540;SHT31;66042;51.090;-115.340;2023-03-04T15:44:15;-11.19;62.61
74540;SHT31;66042;51.090;-115.340;2023-03-04T15:46:42;-11.14;62.47
74540;SHT31;66042;51.090;-115.340;2023-03-04T15:49:09;-11.10;62.57
74540;SHT31;66042;51.090;-115.340;2023-03-04T15:51:39;-11.08;62.88
74540;SHT31;66042;51.090;-115.340;2023-03-04T15:54:07;-11.06;62.77
74540;SHT31;66042;51.090;-115.340;2023-03-04T15:56:38;-11.02;62.59
74540;SHT31;66042;51.090;-115.340;2023-03-04T15:59:08;-10.97;62.42
74540;SHT31;66042;51.090;-115.340;2023-03-04T16:01:40;-10.90;62.33
74540;SHT31;66042;51.090;-115.340;2023-03-04T16:04:14;-10.80;62.21
74540;SHT31;66042;51.090;-115.340;2023-03-04T16:06:43;-10.72;62.00
74540;SHT31;66042;51.090;-115.340;2023-03-04T16:09:12;-10.66;61.83
74540;SHT31;66042;51.090;-115.340;2023-03-04T16:11:44;-10.66;62.09
74540;SHT31;66042;51.090;-115.340;2023-03-04T16:14:12;-10.67;62.25
74540;SHT31;66042;51.090;-115.340;2023-03-04T16:16:41;-10.59;62.31
74540;SHT31;66042;51.090;-115.340;2023-03-04T16:19:08;-10.44;62.13
74540;SHT31;66042;51.090;-115.340;2023-03-04T16:21:36;-10.30;61.69
74540;SHT31;66042;51.090;-115.340;2023-03-04T16:24:03;-10.21;61.36
74540;SHT31;66042;51.090;-115.340;2023-03-04T16:26:31;-10.11;61.10
74540;SHT31;66042;51.090;-115.340;2023-03-04T16:28:58;-10.03;60.85
74540;SHT31;66042;51.090;-115.340;2023-03-04T16:31:27;-9.95;60.68
74540;SHT31;66042;51.090;-115.340;2023-03-04T16:33:54;-9.84;60.57
74540;SHT31;66042;51.090;-115.340;2023-03-04T16:36:23;-9.74;60.28
74540;SHT31;66042;51.090;-115.340;2023-03-04T16:38:55;-9.74;60.03
74540;SHT31;66042;51.090;-115.340;2023-03-04T16:41:28;-9.83;59.83
74540;SHT31;66042;51.090;-115.340;2023-03-04T16:43:59;-9.87;59.89
74540;SHT31;66042;51.090;-115.340;2023-03-04T16:46:26;-9.80;59.90
74540;SHT31;66042;51.090;-115.340;2023-03-04T16:48:54;-9.61;59.84
74540;SHT31;66042;51.090;-115.340;2023-03-04T16:51:21;-9.40;59.59
74540;SHT31;66042;51.090;-115.340;2023-03-04T16:53:52;-9.22;59.37
74540;SHT31;66042;51.090;-115.340;2023-03-04T16:56:24;-9.04;59.07
74540;SHT31;66042;51.090;-115.340;2023-03-04T16:58:51;-8.84;58.86
74540;SHT31;66042;51.090;-115.340;2023-03-04T17:01:20;-8.65;58.39